Time;durP1;ratioP1;P1;durP2;ratioP2;P2;SDS_P1;SDS_P2;PMS_P1;PMS_P2;Temp;Humidity;BMP_temperature;BMP_pressure;BME280_temperature;BME280_humidity;BME280_pressure;Samples;Min_cycle;Max_cycle;Signal;HPM_P1;HPM_P2
2022/12/06 05:30:37;;;;;;;;;42.75;37.50;;;;;6.53;69.80;101667.19;5048951;27;46664;-78
2022/12/06 05:33:03;;;;;;;;;36.25;34.25;;;;;6.51;70.05;101669.00;5026995;28;46788;-78
2022/12/06 05:35:28;;;;;;;;;37.50;35.00;;;;;6.44;70.19;101653.09;5034574;28;45427;-78
2022/12/06 05:37:54;;;;;;;;;42.50;32.75;;;;;6.53;70.28;101664.53;5031517;28;45444;-76
2022/12/06 05:40:19;;;;;;;;;45.00;35.25;;;;;6.44;70.22;101647.78;5009983;28;46097;-78
2022/12/06 05:42:45;;;;;;;;;47.25;37.25;;;;;6.55;69.91;101665.38;5034821;28;45510;-79
2022/12/06 05:45:14;;;;;;;;;37.50;36.00;;;;;6.38;69.96;101625.69;5033523;28;45399;-78
2022/12/06 05:47:39;;;;;;;;;44.50;39.75;;;;;6.42;70.23;101625.59;5016734;28;45399;-80
2022/12/06 05:50:10;;;;;;;;;38.50;31.50;;;;;6.58;70.03;101652.00;5015916;28;45719;-79
2022/12/06 05:52:39;;;;;;;;;44.75;38.75;;;;;6.57;69.73;101653.78;5015593;28;47249;-80
2022/12/06 05:55:04;;;;;;;;;42.50;37.00;;;;;6.06;70.38;101575.53;5031985;28;45511;-78
2022/12/06 05:57:30;;;;;;;;;37.25;33.75;;;;;6.51;70.18;101647.69;5034455;28;45454;-77
2022/12/06 05:59:55;;;;;;;;;42.50;37.50;;;;;6.27;70.06;101601.88;5016283;28;46133;-78
2022/12/06 06:02:21;;;;;;;;;39.25;37.75;;;;;6.52;70.04;101642.34;5034013;28;45510;-78
2022/12/06 06:04:46;;;;;;;;;38.50;33.25;;;;;6.41;70.28;101617.63;5033830;28;45390;-77
2022/12/06 06:07:15;;;;;;;;;41.75;34.75;;;;;6.58;70.28;101652.00;5033806;28;45503;-79
2022/12/06 06:09:40;;;;;;;;;46.00;37.25;;;;;6.59;70.49;101657.31;5033991;28;45208;-77
2022/12/06 06:12:06;;;;;;;;;48.00;39.00;;;;;6.60;70.10;101647.53;5033886;28;45939;-77
2022/12/06 06:14:31;;;;;;;;;40.75;34.75;;;;;6.55;70.22;101649.41;5028105;28;45400;-80
2022/12/06 06:16:56;;;;;;;;;39.75;34.50;;;;;6.49;69.82;101636.16;5033975;28;45344;-79
2022/12/06 06:19:23;;;;;;;;;37.25;31.00;;;;;6.57;70.15;101645.78;5034734;28;45262;-77
2022/12/06 06:21:49;;;;;;;;;33.25;32.50;;;;;6.64;69.97;101662.56;5037309;28;45410;-77
2022/12/06 06:24:14;;;;;;;;;34.50;31.25;;;;;6.63;69.71;101661.72;5019327;28;45328;-79
2022/12/06 06:26:39;;;;;;;;;38.75;32.00;;;;;6.58;70.01;101660.88;5036423;28;45411;-75
2022/12/06 06:29:05;;;;;;;;;32.50;27.50;;;;;6.57;70.02;101659.13;5037394;28;45484;-73
2022/12/06 06:31:30;;;;;;;;;33.00;32.75;;;;;6.64;70.11;101660.78;5036951;28;46130;-76
2022/12/06 06:33:56;;;;;;;;;37.00;30.75;;;;;6.45;70.13;101633.56;5036945;28;45518;-74
2022/12/06 06:36:21;;;;;;;;;32.50;28.50;;;;;6.66;70.34;101666.97;5037529;28;45362;-77
2022/12/06 06:38:46;;;;;;;;;30.00;26.50;;;;;6.62;70.42;101665.28;5036916;28;45461;-74
2022/12/06 06:41:12;;;;;;;;;29.00;27.25;;;;;6.54;70.02;101647.66;5041804;28;45392;-76
2022/12/06 06:43:37;;;;;;;;;35.75;29.25;;;;;6.66;70.57;101668.75;5037165;28;45426;-75
2022/12/06 06:46:05;;;;;;;;;35.00;28.25;;;;;6.68;70.15;101669.63;5037529;28;45527;-78
2022/12/06 06:48:37;;;;;;;;;25.00;23.00;;;;;6.69;70.41;101680.25;5036849;28;45464;-78
2022/12/06 06:51:06;;;;;;;;;27.00;24.75;;;;;6.67;70.51;101671.41;5037110;28;45311;-77
2022/12/06 06:53:32;;;;;;;;;33.75;30.00;;;;;6.72;70.54;101672.19;5038769;28;45480;-75
2022/12/06 06:55:57;;;;;;;;;29.00;27.25;;;;;6.77;70.61;101673.03;5035740;28;45527;-72
2022/12/06 06:58:23;;;;;;;;;31.00;28.00;;;;;6.79;70.42;101675.69;5037079;28;45462;-74
2022/12/06 07:00:55;;;;;;;;;28.00;25.00;;;;;6.81;70.48;101680.06;5036657;28;45395;-72
2022/12/06 07:03:22;;;;;;;;;45.75;34.50;;;;;6.79;70.13;101678.34;5036458;28;45398;-73
2022/12/06 07:05:57;;;;;;;;;35.25;30.75;;;;;6.82;70.10;101670.28;5036860;28;45561;-74
2022/12/06 07:08:24;;;;;;;;;41.00;33.25;;;;;6.59;70.51;101628.00;5036683;28;45370;-75
2022/12/06 07:10:49;;;;;;;;;41.50;36.75;;;;;6.87;70.31;101679.09;5036565;28;45510;-72
2022/12/06 07:13:19;;;;;;;;;45.25;37.25;;;;;6.86;70.33;101677.34;5036508;28;45488;-73
2022/12/06 07:15:44;;;;;;;;;43.00;37.25;;;;;6.72;70.48;101652.69;5036591;28;45401;-73
2022/12/06 07:18:10;;;;;;;;;37.25;33.00;;;;;6.77;70.83;101659.69;5036179;28;45217;-72
2022/12/06 07:20:35;;;;;;;;;45.25;37.50;;;;;6.72;70.63;101666.88;5018491;28;48080;-75
2022/12/06 07:23:01;;;;;;;;;35.25;29.50;;;;;6.73;71.20;101671.28;5036290;28;45455;-74
2022/12/06 07:25:26;;;;;;;;;36.50;33.00;;;;;6.65;71.22;101675.88;5036626;28;45281;-77
2022/12/06 07:27:52;;;;;;;;;31.75;31.75;;;;;6.42;71.39;101660.22;5036238;28;46066;-72
2022/12/06 07:30:17;;;;;;;;;46.50;39.50;;;;;6.42;72.06;101670.00;5035845;28;46852;-74
2022/12/06 07:32:43;;;;;;;;;40.25;36.50;;;;;6.19;71.91;101633.03;5035446;28;45524;-72
2022/12/06 07:35:09;;;;;;;;;35.25;32.25;;;;;6.35;72.08;101676.31;5035751;28;45462;-73
2022/12/06 07:37:35;;;;;;;;;37.50;33.25;;;;;6.25;72.17;101678.22;5036377;28;45457;-73
2022/12/06 07:40:00;;;;;;;;;30.50;28.50;;;;;6.21;72.71;101680.97;5036029;28;46028;-73
2022/12/06 07:45:11;;;;;;;;;36.75;35.25;;;;;6.11;73.30;101671.31;5036962;28;45485;-72
2022/12/06 07:47:42;;;;;;;;;50.50;39.25;;;;;6.08;73.24;101669.56;5035972;28;45511;-72
2022/12/06 07:50:13;;;;;;;;;50.25;40.00;;;;;6.10;73.03;101672.22;5035607;28;45362;-74
2022/12/06 07:52:39;;;;;;;;;40.75;35.25;;;;;6.07;73.38;101667.81;5035252;28;45308;-72
2022/12/06 07:55:06;;;;;;;;;40.00;32.50;;;;;6.10;73.75;101669.56;5027648;28;45427;-73
2022/12/06 07:57:32;;;;;;;;;26.50;26.50;;;;;6.13;73.53;101672.16;5036329;28;45447;-73
2022/12/06 07:59:57;;;;;;;;;39.50;37.00;;;;;6.08;73.46;101675.78;5038762;28;45896;-72
2022/12/06 08:02:25;;;;;;;;;60.25;42.50;;;;;6.09;73.55;101679.31;5038546;28;45202;-72
2022/12/06 08:04:52;;;;;;;;;52.75;37.25;;;;;6.03;73.72;101671.41;5037881;28;45434;-73
2022/12/06 08:07:17;;;;;;;;;47.50;37.00;;;;;6.05;73.72;101683.78;5037115;28;45506;-73
2022/12/06 08:09:43;;;;;;;;;55.50;40.00;;;;;5.96;73.99;101675.91;5036086;28;46450;-75
2022/12/06 08:12:09;;;;;;;;;50.25;41.00;;;;;6.00;74.16;101690.06;5035772;28;45300;-72
2022/12/06 08:14:35;;;;;;;;;50.00;40.00;;;;;5.96;74.37;101694.53;5030027;28;45718;-71
2022/12/06 08:17:01;;;;;;;;;46.00;41.50;;;;;5.87;74.28;101689.28;5035629;28;45626;-73
2022/12/06 08:19:26;;;;;;;;;43.25;38.00;;;;;5.79;74.57;101672.53;5035423;28;45416;-73
2022/12/06 08:21:51;;;;;;;;;54.00;38.50;;;;;5.95;74.85;101706.13;5035409;28;45402;-72
2022/12/06 08:24:17;;;;;;;;;45.00;41.50;;;;;5.90;74.32;101699.06;5035388;28;45366;-72
2022/12/06 08:26:44;;;;;;;;;55.25;42.25;;;;;6.01;74.42;101713.13;5035780;28;45468;-73
2022/12/06 08:29:10;;;;;;;;;50.25;34.75;;;;;6.03;74.26;101704.25;5035540;28;46334;-72
2022/12/06 08:31:36;;;;;;;;;53.75;42.00;;;;;6.11;74.83;101711.25;5035238;28;45337;-73
2022/12/06 08:34:03;;;;;;;;;42.75;37.00;;;;;6.15;74.41;101718.28;5035561;28;45271;-72
2022/12/06 08:36:28;;;;;;;;;58.50;43.75;;;;;6.22;74.24;101714.63;5035362;28;45233;-73
2022/12/06 08:38:55;;;;;;;;;53.25;40.75;;;;;6.27;74.23;101713.69;5035349;28;45240;-72
2022/12/06 08:44:08;;;;;;;;;47.00;35.50;;;;;6.34;74.17;101733.13;5035844;28;45469;-72
2022/12/06 08:46:34;;;;;;;;;51.50;40.75;;;;;6.20;74.97;101733.31;5035065;28;45375;-72
2022/12/06 08:49:01;;;;;;;;;46.00;39.75;;;;;6.12;74.85;101737.84;5034611;28;46811;-71
2022/12/06 08:51:27;;;;;;;;;53.50;41.00;;;;;6.02;75.59;101737.09;5035854;28;45326;-71
2022/12/06 08:53:54;;;;;;;;;56.75;40.75;;;;;6.04;75.56;101747.69;5037271;28;45414;-74
2022/12/06 08:56:19;;;;;;;;;48.25;39.75;;;;;6.00;75.81;101746.84;5035102;28;45528;-74
2022/12/06 08:58:45;;;;;;;;;48.50;38.50;;;;;5.96;76.19;101742.44;5033669;28;46079;-73
2022/12/06 09:01:15;;;;;;;;;40.00;30.25;;;;;6.01;75.56;101751.28;5034929;28;45447;-74
2022/12/06 09:03:41;;;;;;;;;44.75;38.50;;;;;6.03;75.72;101746.84;5034849;28;45354;-75
2022/12/06 09:06:07;;;;;;;;;50.25;40.00;;;;;6.01;75.86;101747.75;5034882;28;45541;-71
2022/12/06 09:08:32;;;;;;;;;40.00;38.00;;;;;6.00;76.35;101732.66;5034932;28;45468;-72
2022/12/06 09:10:58;;;;;;;;;57.00;42.00;;;;;6.04;76.24;101747.69;5035107;28;45193;-73
2022/12/06 09:13:23;;;;;;;;;56.75;41.25;;;;;5.97;76.38;101743.34;5031527;28;45375;-72
2022/12/06 09:15:48;;;;;;;;;52.00;41.75;;;;;6.00;76.61;101754.84;5031134;28;46284;-72
2022/12/06 09:18:14;;;;;;;;;58.25;45.25;;;;;5.96;77.12;101750.44;5034298;28;45242;-71
2022/12/06 09:20:40;;;;;;;;;47.25;38.50;;;;;5.99;76.95;101758.41;5034911;28;45425;-73
2022/12/06 09:23:06;;;;;;;;;50.25;41.00;;;;;6.02;77.54;101761.03;5034786;28;45296;-73
2022/12/06 09:25:31;;;;;;;;;48.50;42.25;;;;;6.03;77.46;101746.84;5034465;28;45548;-74
2022/12/06 09:27:58;;;;;;;;;44.50;41.25;;;;;6.04;77.87;101755.66;5034779;28;45832;-72
2022/12/06 09:30:23;;;;;;;;;54.75;42.25;;;;;6.04;77.40;101753.00;5034518;28;45375;-73
2022/12/06 09:32:48;;;;;;;;;51.50;42.50;;;;;6.08;77.87;101752.09;5034440;28;45635;-72
2022/12/06 09:35:14;;;;;;;;;58.25;43.25;;;;;6.15;77.86;101752.91;5033993;28;45494;-74
2022/12/06 09:37:40;;;;;;;;;51.25;39.25;;;;;6.17;78.02;101757.31;5034351;28;45964;-74
2022/12/06 09:40:14;;;;;;;;;51.50;41.50;;;;;6.23;77.76;101759.00;5034131;28;45379;-73
2022/12/06 09:43:11;;;;;;;;;40.75;38.50;;;;;6.30;77.31;101750.91;5034723;28;45466;-75
2022/12/06 09:45:59;;;;;;;;;47.00;39.25;;;;;6.35;77.24;101758.88;5034312;28;45438;-73
2022/12/06 09:48:42;;;;;;;;;50.00;42.00;;;;;6.31;77.13;101767.78;5034062;28;46104;-72
2022/12/06 09:51:16;;;;;;;;;53.75;41.00;;;;;6.26;77.18;101767.84;5034025;28;45264;-73
2022/12/06 09:53:51;;;;;;;;;44.75;38.25;;;;;6.24;77.34;101766.09;5035646;28;45338;-73
2022/12/06 09:56:28;;;;;;;;;46.00;38.00;;;;;6.16;77.60;101763.53;5034575;28;45287;-73
2022/12/06 09:58:57;;;;;;;;;41.50;34.75;;;;;6.13;77.89;101762.66;5034545;28;45758;-73
2022/12/06 10:01:52;;;;;;;;;50.50;38.25;;;;;6.15;78.10;101772.41;5032681;28;45322;-72
2022/12/06 10:04:54;;;;;;;;;38.75;35.25;;;;;6.20;78.05;101773.25;5033872;28;45209;-73
2022/12/06 10:07:50;;;;;;;;;45.00;36.50;;;;;6.23;77.67;101774.97;5033758;28;45666;-73
2022/12/06 10:10:36;;;;;;;;;43.50;39.00;;;;;6.24;77.78;101772.31;5034096;28;46204;-72
2022/12/06 10:13:15;;;;;;;;;42.75;37.00;;;;;6.27;77.84;101779.38;5033663;28;45408;-73
2022/12/06 10:15:50;;;;;;;;;44.75;39.25;;;;;6.26;77.64;101775.84;5031039;28;45324;-72
2022/12/06 10:18:27;;;;;;;;;48.25;38.00;;;;;6.02;77.34;101729.09;5034226;28;45449;-71
2022/12/06 10:21:16;;;;;;;;;52.25;41.75;;;;;6.24;77.62;101766.09;5032599;28;45511;-72
2022/12/06 10:23:54;;;;;;;;;42.25;39.25;;;;;6.16;77.38;101763.53;5033727;28;45397;-73
2022/12/06 10:26:47;;;;;;;;;45.50;36.75;;;;;6.13;78.00;101768.88;5034227;28;45323;-73
2022/12/06 10:29:22;;;;;;;;;50.75;40.25;;;;;6.04;77.95;101767.19;5031841;28;45818;-73
2022/12/06 10:31:57;;;;;;;;;39.25;34.75;;;;;6.00;78.30;101765.50;5034348;28;46686;-73
2022/12/06 10:34:22;;;;;;;;;41.25;38.00;;;;;5.97;78.57;101775.28;5036048;28;45285;-74
2022/12/06 10:37:15;;;;;;;;;41.00;37.50;;;;;5.85;78.74;101760.31;5034686;28;45350;-72
2022/12/06 10:39:55;;;;;;;;;38.00;35.50;;;;;5.94;79.09;101775.31;5034085;28;45338;-74
2022/12/06 10:42:33;;;;;;;;;50.25;36.50;;;;;5.88;79.20;101775.38;5032566;28;47772;-73
2022/12/06 10:48:35;;;;;;;;;37.50;34.00;;;;;5.96;79.65;101777.06;5034091;28;45387;-74
2022/12/06 10:51:08;;;;;;;;;39.00;35.50;;;;;6.02;79.20;101768.13;5032803;28;47394;-73
2022/12/06 10:54:00;;;;;;;;;52.75;39.75;;;;;6.00;79.24;101761.94;5035236;28;45419;-72
2022/12/06 10:56:31;;;;;;;;;48.50;40.50;;;;;5.96;79.08;101776.16;5034073;28;45412;-73
2022/12/06 10:59:15;;;;;;;;;34.50;34.50;;;;;5.96;79.73;101771.72;5034045;28;45430;-72
2022/12/06 11:01:42;;;;;;;;;46.25;40.25;;;;;5.95;79.41;101758.47;5033841;28;45533;-72
2022/12/06 11:04:12;;;;;;;;;41.50;35.50;;;;;5.95;79.97;101758.47;5031783;28;46608;-72
2022/12/06 11:07:00;;;;;;;;;32.25;28.00;;;;;6.00;79.32;101776.13;5018214;28;45345;-73
2022/12/06 11:09:40;;;;;;;;;48.50;37.50;;;;;6.03;79.77;101770.78;5036683;28;45350;-73
2022/12/06 11:12:22;;;;;;;;;38.75;36.75;;;;;6.03;79.29;101756.59;5036749;28;45376;-73
2022/12/06 11:14:53;;;;;;;;;41.50;37.75;;;;;6.09;79.57;101759.19;5030734;28;45459;-74
2022/12/06 11:17:28;;;;;;;;;37.75;34.00;;;;;6.06;79.79;101735.25;5037607;28;45291;-73
2022/12/06 11:20:06;;;;;;;;;47.25;38.25;;;;;6.22;79.29;101746.59;5037092;28;45366;-72
2022/12/06 11:22:41;;;;;;;;;41.75;33.50;;;;;6.28;79.08;101751.88;5035376;28;45721;-76
2022/12/06 11:25:26;;;;;;;;;40.75;38.50;;;;;6.09;79.24;101719.25;5036418;28;47156;-73
2022/12/06 11:27:59;;;;;;;;;46.00;36.50;;;;;6.29;78.44;101742.97;5036745;28;45494;-72
2022/12/06 11:30:29;;;;;;;;;45.25;32.00;;;;;6.18;78.75;101739.56;5036774;28;45204;-73
2022/12/06 11:32:54;;;;;;;;;44.00;36.25;;;;;6.18;79.48;101740.44;5036217;28;45492;-73
2022/12/06 11:35:24;;;;;;;;;43.00;37.00;;;;;6.22;79.60;101739.47;5036322;28;45404;-73
2022/12/06 11:37:55;;;;;;;;;52.75;37.50;;;;;6.25;79.58;101730.59;5036516;28;45259;-72
2022/12/06 11:40:29;;;;;;;;;46.00;37.75;;;;;6.28;79.38;101739.44;5034922;28;45275;-73
2022/12/06 11:42:59;;;;;;;;;47.25;40.25;;;;;6.30;79.09;101728.75;5036109;28;45566;-74
2022/12/06 11:45:28;;;;;;;;;46.25;38.50;;;;;6.26;78.71;101717.25;5036291;28;47495;-73
2022/12/06 11:47:56;;;;;;;;;46.00;36.50;;;;;6.34;79.10;101719.81;5035833;28;45615;-72
2022/12/06 11:50:24;;;;;;;;;47.75;41.25;;;;;6.31;78.70;101717.19;5036233;28;45338;-74
2022/12/06 11:52:53;;;;;;;;;51.00;40.00;;;;;6.24;79.37;101708.41;5036675;28;46353;-75
2022/12/06 11:55:24;;;;;;;;;42.75;37.25;;;;;6.23;80.11;101697.78;5051406;28;47175;-72
2022/12/06 11:57:57;;;;;;;;;55.00;40.75;;;;;6.26;79.68;101695.97;5036118;28;45205;-73
2022/12/06 12:00:24;;;;;;;;;49.75;40.25;;;;;6.35;79.41;101702.94;5036367;28;45439;-72
2022/12/06 12:02:52;;;;;;;;;54.00;39.25;;;;;6.38;79.73;101700.25;5035601;28;45377;-74
2022/12/06 12:05:21;;;;;;;;;49.00;41.25;;;;;6.46;79.68;101698.38;5035904;28;45316;-72
2022/12/06 12:07:52;;;;;;;;;38.25;37.00;;;;;6.48;79.92;101691.22;5035864;28;45355;-74
2022/12/06 12:10:20;;;;;;;;;44.67;34.00;;;;;6.54;79.55;101683.16;5036259;28;45417;-74
2022/12/06 12:15:34;;;;;;;;;46.00;41.75;;;;;6.63;79.48;101682.13;5032062;28;45692;-73
2022/12/06 12:18:00;;;;;;;;;62.50;45.75;;;;;6.66;79.52;101674.09;5035106;28;45255;-73
2022/12/06 12:20:31;;;;;;;;;64.00;43.50;;;;;6.73;79.71;101684.63;5035639;28;45632;-72
2022/12/06 12:23:05;;;;;;;;;25.75;21.50;;;;;6.78;79.60;101679.25;5035590;28;45318;-72
2022/12/06 12:25:33;;;;;;;;;48.25;38.25;;;;;6.66;79.31;101644.78;5035514;28;46191;-74
2022/12/06 12:28:00;;;;;;;;;56.50;44.50;;;;;6.88;78.96;101672.88;5035924;28;45441;-72
2022/12/06 12:30:27;;;;;;;;;58.75;47.75;;;;;6.93;78.94;101670.13;5035833;28;45214;-73
2022/12/06 12:33:20;;;;;;;;;51.25;40.75;;;;;6.94;78.29;101663.88;5054893;28;45293;-73
2022/12/06 12:35:50;;;;;;;;;62.50;45.50;;;;;7.02;78.60;101673.50;5052395;28;46375;-72
2022/12/06 12:38:23;;;;;;;;;55.25;43.25;;;;;7.02;78.71;101670.84;5055603;28;45485;-72
2022/12/06 12:41:11;;;;;;;;;59.00;45.00;;;;;7.06;78.09;101667.22;5055563;28;45441;-73
2022/12/06 12:43:38;;;;;;;;;59.25;42.25;;;;;7.08;78.38;101665.41;5055590;28;45288;-71
2022/12/06 12:46:09;;;;;;;;;60.75;47.75;;;;;7.15;78.11;101663.50;5055333;28;45343;-72
2022/12/06 12:48:40;;;;;;;;;64.00;46.25;;;;;7.17;77.80;101662.59;5055284;28;45556;-72
2022/12/06 12:51:36;;;;;;;;;50.75;42.75;;;;;7.22;77.94;101663.41;5055445;28;45441;-73
2022/12/06 12:54:23;;;;;;;;;62.25;46.75;;;;;7.13;77.71;101642.22;5057369;28;45480;-72
2022/12/06 12:56:49;;;;;;;;;56.75;47.25;;;;;7.20;77.90;101649.22;5022311;28;46161;-73
2022/12/06 12:59:18;;;;;;;;;60.00;43.25;;;;;7.31;77.82;101672.16;5054927;28;45493;-74
2022/12/06 13:01:50;;;;;;;;;55.00;43.25;;;;;7.30;77.89;101659.72;5055357;28;45315;-72
2022/12/06 13:04:40;;;;;;;;;54.75;44.75;;;;;7.31;77.96;101654.34;5054948;28;45502;-72
2022/12/06 13:07:10;;;;;;;;;50.25;42.50;;;;;7.35;77.89;101652.50;5044628;28;46978;-73
2022/12/06 13:10:02;;;;;;;;;62.00;46.25;;;;;7.34;77.46;101651.63;5055228;28;45336;-71
2022/12/06 13:12:49;;;;;;;;;58.00;45.00;;;;;7.34;77.61;101640.06;5054948;28;45311;-73
2022/12/06 13:15:32;;;;;;;;;47.50;40.50;;;;;7.39;77.28;101647.09;5049797;28;45360;-73
2022/12/06 13:18:05;;;;;;;;;59.50;43.50;;;;;7.41;77.57;101644.38;5054855;28;45159;-74
2022/12/06 13:20:33;;;;;;;;;49.75;42.75;;;;;7.44;77.68;101647.88;5054882;28;45336;-73
2022/12/06 13:23:32;;;;;;;;;54.75;45.00;;;;;7.48;77.43;101641.59;5055123;28;45305;-72
2022/12/06 13:26:12;;;;;;;;;67.75;45.50;;;;;7.51;76.89;101641.50;5054953;28;45426;-73
2022/12/06 13:28:45;;;;;;;;;60.50;44.50;;;;;7.49;77.02;101631.78;5053995;28;46092;-73
2022/12/06 13:31:17;;;;;;;;;60.00;47.75;;;;;7.57;76.89;101637.88;5037239;28;45364;-73
2022/12/06 13:33:57;;;;;;;;;56.25;40.25;;;;;7.57;77.28;101636.06;5054779;28;45498;-73
2022/12/06 13:36:24;;;;;;;;;56.50;43.00;;;;;7.62;77.24;101637.75;5054877;28;45158;-71
2022/12/06 13:38:50;;;;;;;;;52.00;43.25;;;;;7.60;77.01;101636.00;5055221;28;46456;-72
2022/12/06 13:44:40;;;;;;;;;55.50;42.75;;;;;7.68;76.62;101641.19;5056846;28;45268;-71
2022/12/06 13:47:27;;;;;;;;;44.25;38.75;;;;;7.70;76.08;101638.50;5056837;28;45479;-71
2022/12/06 13:50:17;;;;;;;;;43.25;38.00;;;;;7.73;75.94;101633.97;5056004;28;45454;-72
2022/12/06 13:52:45;;;;;;;;;49.25;38.00;;;;;7.74;75.69;101635.72;5039840;28;45347;-73
2022/12/06 13:55:23;;;;;;;;;42.25;36.50;;;;;7.76;76.18;101635.69;5055299;28;45443;-73
2022/12/06 13:58:09;;;;;;;;;47.25;36.75;;;;;7.66;75.58;101613.63;5054307;28;45995;-74
2022/12/06 14:00:40;;;;;;;;;49.00;39.50;;;;;7.76;75.53;101639.25;5012717;28;45383;-72
2022/12/06 14:03:14;;;;;;;;;46.75;40.25;;;;;7.77;75.30;101629.44;5054076;28;45363;-73
2022/12/06 14:06:03;;;;;;;;;45.50;36.50;;;;;7.77;75.60;101632.13;5054411;28;45350;-72
2022/12/06 14:08:54;;;;;;;;;38.50;36.75;;;;;7.73;75.76;101619.75;5054283;28;45500;-73
2022/12/06 14:11:31;;;;;;;;;37.75;33.50;;;;;7.75;75.33;101621.47;5043349;28;46038;-72
2022/12/06 14:13:59;;;;;;;;;33.25;31.25;;;;;7.80;75.08;101635.63;5054105;28;45374;-72
2022/12/06 14:16:31;;;;;;;;;38.75;30.50;;;;;7.83;75.56;101631.97;5054371;28;45339;-72
2022/12/06 14:18:57;;;;;;;;;28.00;24.25;;;;;7.83;74.33;101629.31;5053831;28;45509;-73
2022/12/06 14:21:29;;;;;;;;;30.75;27.50;;;;;7.83;74.44;101627.53;5054035;28;46251;-73
2022/12/06 14:23:55;;;;;;;;;39.25;33.00;;;;;7.85;74.50;101632.84;5053888;28;45496;-73
2022/12/06 14:26:24;;;;;;;;;29.75;26.25;;;;;7.80;74.49;101624.94;5036185;28;45328;-73
2022/12/06 14:28:51;;;;;;;;;36.25;32.50;;;;;7.88;74.16;101632.78;5053964;28;45330;-72
2022/12/06 14:31:19;;;;;;;;;30.25;27.50;;;;;7.89;74.61;101629.22;5053806;28;45580;-72
2022/12/06 14:33:45;;;;;;;;;22.00;20.25;;;;;7.90;74.13;101629.19;5053677;28;45530;-74
2022/12/06 14:36:17;;;;;;;;;29.50;22.25;;;;;7.85;74.05;101617.69;5054088;28;45533;-72
2022/12/06 14:38:50;;;;;;;;;27.25;22.50;;;;;7.92;73.82;101631.78;5053609;28;45530;-74
2022/12/06 14:44:12;;;;;;;;;24.75;23.50;;;;;7.93;73.28;101620.22;5057497;28;45335;-74
2022/12/06 14:46:38;;;;;;;;;27.50;27.00;;;;;7.98;73.28;101629.03;5039373;28;45298;-73
2022/12/06 14:51:49;;;;;;;;;27.25;25.25;;;;;7.97;73.42;101629.94;5057254;28;45790;-74
2022/12/06 14:54:29;;;;;;;;;32.00;27.75;;;;;8.03;72.63;101623.56;5058889;28;45396;-74
2022/12/06 14:56:54;;;;;;;;;30.50;28.25;;;;;7.97;73.01;101621.91;5057769;28;45318;-72
2022/12/06 14:59:23;;;;;;;;;18.00;18.00;;;;;7.67;72.99;101574.50;5056986;28;45337;-74
2022/12/06 15:01:53;;;;;;;;;38.75;27.50;;;;;8.02;72.96;101629.81;5056990;28;46218;-73
2022/12/06 15:04:34;;;;;;;;;26.50;25.00;;;;;8.06;72.79;101628.84;5056580;28;45389;-74
2022/12/06 15:07:00;;;;;;;;;32.00;28.50;;;;;8.06;72.67;101626.19;5057348;28;45479;-74
2022/12/06 15:09:29;;;;;;;;;30.50;26.25;;;;;8.05;72.41;101616.41;5056819;28;45317;-73
2022/12/06 15:15:34;;;;;;;;;34.75;30.50;;;;;8.10;72.71;101622.50;5051217;28;45465;-72
2022/12/06 15:18:23;;;;;;;;;41.50;34.25;;;;;8.10;73.00;101612.72;5056876;28;45351;-73
2022/12/06 15:20:49;;;;;;;;;38.75;31.75;;;;;7.97;72.38;101598.75;5057060;28;45482;-74
2022/12/06 15:23:32;;;;;;;;;41.00;32.50;;;;;8.14;72.28;101625.09;5056767;28;45324;-73
2022/12/06 15:25:57;;;;;;;;;29.75;29.00;;;;;8.16;72.40;101619.75;5056777;28;45404;-73
2022/12/06 15:28:23;;;;;;;;;33.75;26.50;;;;;8.15;71.92;101620.66;5056979;28;45307;-72
2022/12/06 15:30:49;;;;;;;;;32.50;25.00;;;;;8.02;72.32;101592.44;5056798;28;45624;-72
2022/12/06 15:33:17;;;;;;;;;29.00;25.50;;;;;8.19;72.08;101619.66;5056625;28;46091;-73
2022/12/06 15:35:44;;;;;;;;;36.75;31.75;;;;;8.15;72.37;101623.31;5056640;28;45559;-72
2022/12/06 15:38:11;;;;;;;;;30.00;28.00;;;;;8.09;72.06;101613.63;5056665;28;45635;-72
2022/12/06 15:40:39;;;;;;;;;31.50;30.25;;;;;8.20;72.20;101632.09;5056725;28;45411;-72
2022/12/06 15:43:21;;;;;;;;;24.25;22.75;;;;;8.16;72.03;101620.63;5056923;28;46027;-71
2022/12/06 15:45:47;;;;;;;;;31.00;26.25;;;;;8.03;71.78;101599.53;5056695;28;45422;-74
2022/12/06 15:48:12;;;;;;;;;37.00;26.25;;;;;8.20;71.39;101627.63;5056502;28;45822;-74
2022/12/06 15:50:38;;;;;;;;;31.00;27.00;;;;;8.19;71.88;101628.53;5056542;28;45430;-74
2022/12/06 15:53:03;;;;;;;;;31.00;26.75;;;;;8.16;71.63;101617.06;5056553;28;45989;-72
2022/12/06 15:55:28;;;;;;;;;30.75;26.50;;;;;8.16;71.20;101625.06;5056492;28;45309;-74
2022/12/06 15:57:54;;;;;;;;;36.75;28.75;;;;;8.18;71.12;101632.13;5056303;28;45494;-72
2022/12/06 16:00:19;;;;;;;;;30.25;26.00;;;;;8.22;71.09;101632.94;5056382;28;45369;-72
2022/12/06 16:02:45;;;;;;;;;27.00;22.50;;;;;8.21;71.32;101634.72;5055852;28;46087;-72
2022/12/06 16:05:15;;;;;;;;;26.25;23.50;;;;;8.20;70.37;101632.97;5038100;28;45293;-72
2022/12/06 16:07:40;;;;;;;;;25.75;23.75;;;;;8.16;70.01;101639.31;5056083;28;45364;-73
2022/12/06 16:10:06;;;;;;;;;28.25;24.25;;;;;8.14;69.90;101627.78;5055769;28;45520;-72
2022/12/06 16:13:20;;;;;;;;;23.50;22.25;;;;;8.17;69.92;101633.03;5056370;28;46302;-73
2022/12/06 16:15:17;;;;;;;;;21.25;20.75;;;;;8.16;70.27;101630.41;5050291;28;45537;-73
2022/12/06 16:17:42;;;;;;;;;27.50;23.50;;;;;8.10;69.58;101628.75;5056084;28;45515;-72
2022/12/06 16:25:36;;;;;;;;;26.25;22.50;;;;;8.05;69.95;101633.31;5055978;28;45338;-73
2022/12/06 16:28:01;;;;;;;;;23.50;21.50;;;;;8.07;69.41;101650.19;5056350;28;45360;-73
2022/12/06 16:30:31;;;;;;;;;25.25;22.50;;;;;8.01;69.49;101639.63;5055675;28;45506;-73
2022/12/06 16:32:58;;;;;;;;;25.25;22.75;;;;;8.01;69.14;101641.41;5056670;28;45328;-74
2022/12/06 16:35:25;;;;;;;;;22.00;20.50;;;;;7.99;69.41;101650.31;5057838;28;45312;-72
2022/12/06 16:37:50;;;;;;;;;18.75;17.25;;;;;7.86;68.97;101634.59;5059004;28;45324;-73
2022/12/06 16:40:20;;;;;;;;;24.00;20.75;;;;;7.82;68.99;101633.81;5058463;28;45451;-73
2022/12/06 16:42:45;;;;;;;;;22.50;21.00;;;;;7.87;68.92;101647.03;5058135;28;45334;-73
2022/12/06 16:45:11;;;;;;;;;23.50;20.50;;;;;7.82;68.82;101644.47;5056522;28;45414;-74
2022/12/06 16:47:36;;;;;;;;;26.50;20.25;;;;;7.76;68.66;101639.25;5056962;28;45474;-73
2022/12/06 16:50:02;;;;;;;;;25.00;22.50;;;;;7.68;69.20;101640.31;5055670;28;45257;-72
2022/12/06 16:52:28;;;;;;;;;22.25;18.00;;;;;7.69;68.94;101653.63;5056803;28;45245;-73
2022/12/06 16:54:53;;;;;;;;;23.25;22.75;;;;;7.65;69.10;101645.72;5055622;28;45446;-74
2022/12/06 16:57:19;;;;;;;;;17.75;17.75;;;;;7.63;69.43;101648.41;5055762;28;45256;-72
2022/12/06 16:59:45;;;;;;;;;26.00;23.00;;;;;7.60;68.88;101643.13;5055100;28;45952;-73
2022/12/06 17:02:25;;;;;;;;;17.75;17.50;;;;;7.59;69.25;101652.03;5055230;28;46359;-73
2022/12/06 17:04:51;;;;;;;;;27.50;22.50;;;;;7.58;69.28;101648.50;5055359;28;45364;-74
2022/12/06 17:07:16;;;;;;;;;21.00;18.25;;;;;7.48;69.53;101627.38;5055635;28;45337;-73
2022/12/06 17:09:42;;;;;;;;;20.75;19.00;;;;;7.52;69.47;101643.28;5055072;28;45454;-73
2022/12/06 17:12:11;;;;;;;;;25.25;21.75;;;;;7.50;69.35;101653.09;5055079;28;45586;-73
2022/12/06 17:14:38;;;;;;;;;21.00;20.00;;;;;7.49;68.93;101654.00;5036648;28;45465;-73
2022/12/06 17:17:05;;;;;;;;;25.50;19.00;;;;;7.36;69.27;101638.25;5055156;28;45334;-72
2022/12/06 17:19:32;;;;;;;;;27.25;21.75;;;;;7.36;69.35;101635.59;5055150;28;45407;-73
2022/12/06 17:21:58;;;;;;;;;27.25;22.75;;;;;7.37;69.63;101645.34;5054915;28;45912;-73
2022/12/06 17:24:25;;;;;;;;;20.25;18.75;;;;;7.27;69.72;101623.31;5037109;28;45382;-73
2022/12/06 17:26:52;;;;;;;;;23.00;20.00;;;;;7.31;69.94;101643.69;5055100;28;45363;-71
2022/12/06 17:29:18;;;;;;;;;23.75;23.75;;;;;7.31;69.68;101649.03;5036099;28;46187;-71
2022/12/06 17:31:44;;;;;;;;;28.25;25.75;;;;;7.30;69.67;101655.25;5053830;28;45528;-74